createdAt,value
2018-01-30T00:00:59.088Z,6.30
2018-01-30T00:01:59.062Z,6.19
2018-01-30T00:02:59.048Z,6.15
2018-01-30T00:03:59.022Z,6.15
2018-01-30T00:04:59.005Z,6.18
2018-01-30T00:05:58.984Z,6.22
2018-01-30T00:06:58.965Z,6.14
2018-01-30T00:07:58.939Z,6.03
2018-01-30T00:08:58.919Z,6.17
2018-01-30T00:09:58.895Z,6.14
2018-01-30T00:10:58.877Z,6.18
2018-01-30T00:11:58.856Z,6.14
2018-01-30T00:12:58.841Z,6.18
2018-01-30T00:13:58.815Z,6.14
2018-01-30T00:14:58.796Z,6.12
2018-01-30T00:15:58.779Z,6.15
2018-01-30T00:16:58.753Z,6.14
2018-01-30T00:17:58.737Z,6.19
2018-01-30T00:18:58.713Z,6.17
2018-01-30T00:19:58.696Z,6.25
2018-01-30T00:20:58.677Z,6.19
2018-01-30T00:21:58.658Z,6.18
2018-01-30T00:22:58.634Z,6.04
2018-01-30T00:23:58.616Z,6.14
2018-01-30T00:24:58.598Z,6.06
2018-01-30T00:25:58.572Z,6.12
2018-01-30T00:26:58.556Z,6.19
2018-01-30T00:27:58.533Z,6.21
2018-01-30T00:28:58.516Z,6.21
2018-01-30T00:29:58.486Z,6.17
2018-01-30T00:30:58.465Z,6.18
2018-01-30T00:31:58.449Z,6.18
2018-01-30T00:32:58.425Z,6.14
2018-01-30T00:33:58.406Z,6.18
2018-01-30T00:34:58.389Z,6.14
2018-01-30T00:35:58.364Z,6.08
2018-01-30T00:36:58.340Z,6.08
2018-01-30T00:37:58.324Z,6.19
2018-01-30T00:38:58.301Z,6.15
2018-01-30T00:39:58.284Z,6.19
2018-01-30T00:40:58.261Z,6.14
2018-01-30T00:41:58.247Z,6.06
2018-01-30T00:42:58.221Z,6.09
2018-01-30T00:43:58.199Z,6.03
2018-01-30T00:44:58.178Z,6.04
2018-01-30T00:45:58.156Z,6.04
2018-01-30T00:46:58.135Z,6.03
2018-01-30T00:47:58.116Z,6.06
2018-01-30T00:48:58.095Z,6.08
2018-01-30T00:49:58.076Z,6.04
2018-01-30T00:50:58.055Z,6.06
2018-01-30T00:51:58.036Z,6.00
2018-01-30T00:52:58.018Z,5.96
2018-01-30T00:53:57.993Z,5.97
2018-01-30T00:54:58.019Z,5.97
2018-01-30T00:55:57.952Z,5.99
2018-01-30T00:56:57.930Z,5.94
2018-01-30T00:57:57.916Z,5.96
2018-01-30T00:58:57.889Z,5.93
2018-01-30T00:59:57.871Z,5.86
2018-01-30T01:00:57.849Z,5.96
2018-01-30T01:01:57.833Z,5.99
2018-01-30T01:02:57.813Z,5.97
2018-01-30T01:03:57.793Z,5.93
2018-01-30T01:04:57.766Z,5.94
2018-01-30T01:05:57.749Z,5.94
2018-01-30T01:06:57.730Z,5.79
2018-01-30T01:07:57.706Z,5.85
2018-01-30T01:08:57.683Z,5.89
2018-01-30T01:09:57.665Z,5.93
2018-01-30T01:10:57.643Z,5.82
2018-01-30T01:11:57.626Z,5.85
2018-01-30T01:12:57.609Z,5.75
2018-01-30T01:13:57.587Z,5.90
2018-01-30T01:14:57.565Z,5.81
2018-01-30T01:15:57.547Z,5.79
2018-01-30T01:16:57.526Z,5.72
2018-01-30T01:17:57.501Z,5.74
2018-01-30T01:18:57.486Z,5.78
2018-01-30T01:19:57.461Z,5.74
2018-01-30T01:20:57.437Z,5.64
2018-01-30T01:21:57.416Z,5.63
2018-01-30T01:22:57.395Z,5.64
2018-01-30T01:23:57.375Z,5.61
2018-01-30T01:24:57.356Z,5.74
2018-01-30T01:25:57.337Z,5.64
2018-01-30T01:26:57.320Z,5.57
2018-01-30T01:27:57.294Z,5.76
2018-01-30T01:28:57.272Z,5.76
2018-01-30T01:29:57.254Z,5.71
2018-01-30T01:30:57.231Z,5.67
2018-01-30T01:31:57.212Z,5.67
2018-01-30T01:32:57.190Z,5.63
2018-01-30T01:33:57.166Z,5.63
2018-01-30T01:34:57.150Z,5.65
2018-01-30T01:35:57.126Z,5.61
2018-01-30T01:36:57.105Z,5.65
2018-01-30T01:37:57.084Z,5.67
2018-01-30T01:38:57.065Z,5.67
2018-01-30T01:39:57.046Z,5.68
2018-01-30T01:40:57.025Z,5.61
2018-01-30T01:41:57.002Z,5.64
2018-01-30T01:42:56.985Z,5.63
2018-01-30T01:43:56.961Z,5.58
2018-01-30T01:44:56.938Z,5.65
2018-01-30T01:45:56.922Z,5.64
2018-01-30T01:46:56.905Z,5.49
2018-01-30T01:47:56.879Z,5.54
2018-01-30T01:48:56.855Z,5.58
2018-01-30T01:49:56.834Z,5.53
2018-01-30T01:50:56.821Z,5.61
2018-01-30T01:51:56.797Z,5.56
2018-01-30T01:52:56.777Z,5.57
2018-01-30T01:53:56.757Z,5.46
2018-01-30T01:54:56.732Z,5.39
2018-01-30T01:55:56.716Z,5.36
2018-01-30T01:56:56.692Z,5.36
2018-01-30T01:57:56.672Z,5.30
2018-01-30T01:58:56.654Z,5.31
2018-01-30T01:59:56.630Z,5.36
2018-01-30T02:00:56.614Z,5.35
2018-01-30T02:01:56.590Z,5.35
2018-01-30T02:02:56.572Z,5.38
2018-01-30T02:03:56.553Z,5.40
2018-01-30T02:04:56.531Z,5.31
2018-01-30T02:05:56.508Z,5.38
2018-01-30T02:06:56.484Z,5.28
2018-01-30T02:07:56.469Z,5.35
2018-01-30T02:08:56.449Z,5.22
2018-01-30T02:09:56.428Z,5.21
2018-01-30T02:10:56.407Z,5.20
2018-01-30T02:11:56.384Z,5.25
2018-01-30T02:12:56.367Z,5.24
2018-01-30T02:13:56.342Z,5.25
2018-01-30T02:14:56.327Z,5.24
2018-01-30T02:15:56.304Z,5.18
2018-01-30T02:16:56.287Z,5.04
2018-01-30T02:17:56.266Z,5.03
2018-01-30T02:18:56.242Z,5.03
2018-01-30T02:19:56.219Z,4.96
2018-01-30T02:20:56.202Z,4.99
2018-01-30T02:21:56.177Z,4.96
2018-01-30T02:22:56.161Z,4.89
2018-01-30T02:23:56.136Z,4.96
2018-01-30T02:24:56.116Z,4.86
2018-01-30T02:25:56.096Z,4.85
2018-01-30T02:26:56.075Z,4.92
2018-01-30T02:27:56.056Z,4.86
2018-01-30T02:28:56.037Z,4.94
2018-01-30T02:29:56.015Z,4.77
2018-01-30T02:30:56.065Z,4.84
2018-01-30T02:31:55.974Z,4.77
2018-01-30T02:32:55.959Z,4.85
2018-01-30T02:33:55.932Z,4.85
2018-01-30T02:34:55.913Z,4.73
2018-01-30T02:35:55.892Z,4.86
2018-01-30T02:36:55.869Z,4.75
2018-01-30T02:37:55.853Z,4.73
2018-01-30T02:38:55.829Z,4.67
2018-01-30T02:39:55.810Z,4.65
2018-01-30T02:40:55.784Z,4.69
2018-01-30T02:41:55.766Z,4.59
2018-01-30T02:42:55.746Z,4.59
2018-01-30T02:43:55.727Z,4.70
2018-01-30T02:44:55.704Z,4.62
2018-01-30T02:45:55.698Z,4.67
2018-01-30T02:46:55.663Z,4.66
2018-01-30T02:47:55.646Z,4.59
2018-01-30T02:48:55.624Z,4.70
2018-01-30T02:49:55.599Z,4.63
2018-01-30T02:50:55.580Z,4.65
2018-01-30T02:51:55.559Z,4.59
2018-01-30T02:52:55.543Z,4.67
2018-01-30T02:53:55.517Z,4.54
2018-01-30T02:54:55.499Z,4.51
2018-01-30T02:55:55.499Z,4.62
2018-01-30T02:56:55.453Z,4.54
2018-01-30T02:57:55.435Z,4.59
2018-01-30T02:58:55.416Z,4.59
2018-01-30T02:59:55.396Z,4.55
2018-01-30T03:00:55.376Z,4.50
2018-01-30T03:01:55.353Z,4.44
2018-01-30T03:02:55.331Z,4.45
2018-01-30T03:03:55.317Z,4.50
2018-01-30T03:04:55.291Z,4.51
2018-01-30T03:05:55.266Z,4.51
2018-01-30T03:06:55.250Z,4.48
2018-01-30T03:07:55.226Z,4.42
2018-01-30T03:08:55.203Z,4.48
2018-01-30T03:09:55.183Z,4.41
2018-01-30T03:10:55.164Z,4.47
2018-01-30T03:11:55.146Z,4.41
2018-01-30T03:12:55.127Z,4.41
2018-01-30T03:13:55.098Z,4.42
2018-01-30T03:14:55.086Z,4.33
2018-01-30T03:15:55.063Z,4.34
2018-01-30T03:16:55.037Z,4.30
2018-01-30T03:17:55.015Z,4.33
2018-01-30T03:18:54.995Z,4.40
2018-01-30T03:19:54.976Z,4.34
2018-01-30T03:20:54.955Z,4.27
2018-01-30T03:21:54.935Z,4.30
2018-01-30T03:22:54.913Z,4.32
2018-01-30T03:23:54.895Z,4.29
2018-01-30T03:24:54.871Z,4.33
2018-01-30T03:25:54.852Z,4.32
2018-01-30T03:26:54.832Z,4.29
2018-01-30T03:27:54.809Z,4.33
2018-01-30T03:28:54.784Z,4.27
2018-01-30T03:29:54.765Z,4.36
2018-01-30T03:30:54.744Z,4.33
2018-01-30T03:31:54.726Z,4.29
2018-01-30T03:32:54.705Z,4.26
2018-01-30T03:33:54.684Z,4.24
2018-01-30T03:34:54.660Z,4.23
2018-01-30T03:35:54.646Z,4.26
2018-01-30T03:36:54.617Z,4.27
2018-01-30T03:37:54.597Z,4.22
2018-01-30T03:38:54.575Z,4.29
2018-01-30T03:39:54.556Z,4.24
2018-01-30T03:40:54.535Z,4.27
2018-01-30T03:41:54.516Z,4.29
2018-01-30T03:42:54.491Z,4.27
2018-01-30T03:43:54.474Z,4.30
2018-01-30T03:44:54.450Z,4.32
2018-01-30T03:45:54.432Z,4.27
2018-01-30T03:46:54.410Z,4.27
2018-01-30T03:47:54.386Z,4.29
2018-01-30T03:48:54.366Z,4.26
2018-01-30T03:49:54.345Z,4.32
2018-01-30T03:50:54.324Z,4.24
2018-01-30T03:51:54.305Z,4.27
2018-01-30T03:52:54.281Z,4.24
2018-01-30T03:53:54.260Z,4.24
2018-01-30T03:54:54.243Z,4.24
2018-01-30T03:55:54.220Z,4.18
2018-01-30T03:56:54.197Z,4.24
2018-01-30T03:57:54.175Z,4.33
2018-01-30T03:58:54.155Z,4.23
2018-01-30T03:59:54.136Z,4.22
2018-01-30T04:00:54.114Z,4.23
2018-01-30T04:01:54.096Z,4.27
2018-01-30T04:02:54.070Z,4.23
2018-01-30T04:03:54.055Z,4.15
2018-01-30T04:04:54.034Z,4.14
2018-01-30T04:05:54.013Z,4.09
2018-01-30T04:06:53.991Z,4.22
2018-01-30T04:07:53.971Z,4.22
2018-01-30T04:08:53.944Z,4.20
2018-01-30T04:09:53.925Z,4.09
2018-01-30T04:10:53.903Z,4.02
2018-01-30T04:11:53.885Z,4.06
2018-01-30T04:12:53.861Z,4.05
2018-01-30T04:13:53.840Z,4.05
2018-01-30T04:14:53.817Z,4.04
2018-01-30T04:15:53.801Z,4.06
2018-01-30T04:16:53.776Z,4.02
2018-01-30T04:17:53.755Z,3.94
2018-01-30T04:18:53.739Z,3.91
2018-01-30T04:19:53.713Z,3.97
2018-01-30T04:20:53.692Z,3.91
2018-01-30T04:21:53.670Z,3.94
2018-01-30T04:22:53.650Z,4.02
2018-01-30T04:23:53.625Z,3.98
2018-01-30T04:24:53.609Z,3.91
2018-01-30T04:25:53.588Z,3.97
2018-01-30T04:26:53.562Z,4.06
2018-01-30T04:27:53.544Z,4.05
2018-01-30T04:28:53.519Z,4.02
2018-01-30T04:29:53.502Z,4.05
2018-01-30T04:30:53.480Z,3.96
2018-01-30T04:31:53.458Z,3.93
2018-01-30T04:32:53.435Z,4.00
2018-01-30T04:33:53.415Z,3.93
2018-01-30T04:34:53.395Z,3.96
2018-01-30T04:35:53.373Z,3.88
2018-01-30T04:36:53.349Z,4.02
2018-01-30T04:37:53.328Z,3.90
2018-01-30T04:38:53.310Z,3.78
2018-01-30T04:39:53.288Z,3.87
2018-01-30T04:40:53.264Z,3.86
2018-01-30T04:41:53.245Z,3.87
2018-01-30T04:42:53.225Z,3.96
2018-01-30T04:43:53.206Z,3.86
2018-01-30T04:44:53.182Z,3.93
2018-01-30T04:45:53.158Z,3.94
2018-01-30T04:46:53.143Z,3.94
2018-01-30T04:47:53.119Z,3.97
2018-01-30T04:48:53.095Z,3.94
2018-01-30T04:49:53.076Z,3.97
2018-01-30T04:50:53.055Z,3.97
2018-01-30T04:51:53.031Z,3.91
2018-01-30T04:52:53.022Z,3.94
2018-01-30T04:53:52.990Z,3.91
2018-01-30T04:54:52.969Z,3.87
2018-01-30T04:55:52.948Z,3.91
2018-01-30T04:56:52.926Z,3.91
2018-01-30T04:57:52.906Z,3.90
2018-01-30T04:58:52.886Z,3.87
2018-01-30T04:59:52.865Z,3.88
2018-01-30T05:00:52.842Z,3.93
2018-01-30T05:01:52.818Z,3.91
2018-01-30T05:02:52.805Z,3.93
2018-01-30T05:03:52.776Z,3.88
2018-01-30T05:04:52.754Z,3.90
2018-01-30T05:05:52.735Z,3.90
2018-01-30T05:06:52.722Z,3.86
2018-01-30T05:07:52.692Z,3.90
2018-01-30T05:08:52.674Z,3.94
2018-01-30T05:09:52.653Z,3.91
2018-01-30T05:10:52.627Z,3.91
2018-01-30T05:11:52.609Z,3.91
2018-01-30T05:12:52.634Z,3.88
2018-01-30T05:13:52.564Z,4.00
2018-01-30T05:14:52.542Z,3.90
2018-01-30T05:15:52.525Z,3.93
2018-01-30T05:16:52.501Z,3.97
2018-01-30T05:17:52.483Z,3.97
2018-01-30T05:18:52.458Z,3.84
2018-01-30T05:19:52.439Z,3.79
2018-01-30T05:20:52.413Z,3.76
2018-01-30T05:21:52.403Z,3.78
2018-01-30T05:22:52.378Z,3.87
2018-01-30T05:23:52.350Z,3.87
2018-01-30T05:24:52.326Z,3.86
2018-01-30T05:25:52.306Z,3.87
2018-01-30T05:26:52.287Z,3.91
2018-01-30T05:27:52.264Z,3.91
2018-01-30T05:28:52.244Z,3.93
2018-01-30T05:29:52.223Z,3.96
2018-01-30T05:30:52.203Z,3.88
2018-01-30T05:31:52.182Z,3.93
2018-01-30T05:32:52.161Z,3.97
2018-01-30T05:33:52.140Z,3.86
2018-01-30T05:34:52.117Z,3.79
2018-01-30T05:35:52.095Z,3.78
2018-01-30T05:36:52.072Z,3.80
2018-01-30T05:37:52.061Z,3.88
2018-01-30T05:38:52.041Z,3.93
2018-01-30T05:39:52.012Z,3.86
2018-01-30T05:40:51.988Z,3.96
2018-01-30T05:41:51.975Z,3.96
2018-01-30T05:42:51.946Z,3.97
2018-01-30T05:43:51.930Z,3.91
2018-01-30T05:44:51.905Z,3.96
2018-01-30T05:45:51.882Z,3.96
2018-01-30T05:46:51.865Z,3.96
2018-01-30T05:47:51.845Z,3.83
2018-01-30T05:48:51.819Z,3.87
2018-01-30T05:49:51.798Z,3.96
2018-01-30T05:50:51.778Z,3.87
2018-01-30T05:51:51.754Z,3.76
2018-01-30T05:52:51.735Z,3.87
2018-01-30T05:53:51.714Z,3.86
2018-01-30T05:54:51.692Z,3.88
2018-01-30T05:55:51.668Z,3.87
2018-01-30T05:56:51.652Z,3.93
2018-01-30T05:57:51.630Z,3.93
2018-01-30T05:58:51.605Z,3.96
2018-01-30T05:59:51.587Z,3.88
2018-01-30T06:00:51.588Z,3.91
2018-01-30T06:01:51.543Z,3.94
2018-01-30T06:02:51.526Z,3.91
2018-01-30T06:03:51.503Z,3.91
2018-01-30T06:04:51.479Z,3.87
2018-01-30T06:05:51.454Z,3.96
2018-01-30T06:06:51.434Z,3.98
2018-01-30T06:07:51.416Z,3.84
2018-01-30T06:08:51.408Z,3.88
2018-01-30T06:09:51.375Z,3.87
2018-01-30T06:10:51.353Z,3.86
2018-01-30T06:11:51.335Z,3.90
2018-01-30T06:12:51.311Z,3.83
2018-01-30T06:13:51.287Z,3.76
2018-01-30T06:14:51.265Z,3.86
2018-01-30T06:15:51.243Z,3.86
2018-01-30T06:16:51.225Z,3.86
2018-01-30T06:17:51.201Z,3.86
2018-01-30T06:18:51.184Z,3.93
2018-01-30T06:19:51.165Z,3.76
2018-01-30T06:20:51.136Z,3.75
2018-01-30T06:21:51.118Z,3.75
2018-01-30T06:22:51.095Z,3.73
2018-01-30T06:23:51.072Z,3.70
2018-01-30T06:24:51.065Z,3.76
2018-01-30T06:25:51.032Z,3.73
2018-01-30T06:26:51.014Z,3.70
2018-01-30T06:27:50.996Z,3.76
2018-01-30T06:28:50.971Z,3.76
2018-01-30T06:29:50.949Z,3.76
2018-01-30T06:30:50.923Z,3.73
2018-01-30T06:31:50.902Z,3.75
2018-01-30T06:32:50.884Z,3.75
2018-01-30T06:33:50.860Z,3.78
2018-01-30T06:34:50.843Z,3.83
2018-01-30T06:35:50.821Z,3.72
2018-01-30T06:36:50.795Z,3.78
2018-01-30T06:37:50.780Z,3.75
2018-01-30T06:38:50.755Z,3.65
2018-01-30T06:39:50.733Z,3.60
2018-01-30T06:40:50.709Z,3.52
2018-01-30T06:41:50.693Z,3.55
2018-01-30T06:42:50.669Z,3.58
2018-01-30T06:43:50.652Z,3.58
2018-01-30T06:44:50.626Z,3.65
2018-01-30T06:45:50.603Z,3.70
2018-01-30T06:46:50.596Z,3.68
2018-01-30T06:47:50.565Z,3.68
2018-01-30T06:48:50.543Z,3.60
2018-01-30T06:49:50.520Z,3.70
2018-01-30T06:50:50.497Z,3.75
2018-01-30T06:51:50.481Z,3.62
2018-01-30T06:52:50.455Z,3.66
2018-01-30T06:53:50.435Z,3.68
2018-01-30T06:54:50.412Z,3.69
2018-01-30T06:55:50.391Z,3.62
2018-01-30T06:56:50.368Z,3.66
2018-01-30T06:57:50.347Z,3.62
2018-01-30T06:58:50.330Z,3.68
2018-01-30T06:59:50.311Z,3.69
2018-01-30T07:00:50.288Z,3.65
2018-01-30T07:01:50.273Z,3.66
2018-01-30T07:02:50.241Z,3.66
2018-01-30T07:03:50.225Z,3.48
2018-01-30T07:04:50.202Z,3.54
2018-01-30T07:05:50.178Z,3.54
2018-01-30T07:06:50.155Z,3.66
2018-01-30T07:07:50.136Z,3.45
2018-01-30T07:08:50.121Z,3.54
2018-01-30T07:09:50.090Z,3.58
2018-01-30T07:10:50.073Z,3.62
2018-01-30T07:11:50.052Z,3.50
2018-01-30T07:12:50.029Z,3.55
2018-01-30T07:13:50.006Z,3.48
2018-01-30T07:14:49.994Z,3.51
2018-01-30T07:15:49.964Z,3.47
2018-01-30T07:16:49.941Z,3.48
2018-01-30T07:17:49.923Z,3.50
2018-01-30T07:18:49.898Z,3.50
2018-01-30T07:19:49.876Z,3.52
2018-01-30T07:20:49.855Z,3.48
2018-01-30T07:21:49.834Z,3.47
2018-01-30T07:22:49.813Z,3.51
2018-01-30T07:23:49.795Z,3.50
2018-01-30T07:24:49.827Z,3.52
2018-01-30T07:25:49.745Z,3.52
2018-01-30T07:26:49.726Z,3.57
2018-01-30T07:27:49.706Z,3.55
2018-01-30T07:28:49.685Z,3.52
2018-01-30T07:29:49.662Z,3.52
2018-01-30T07:30:49.649Z,3.65
2018-01-30T07:31:49.625Z,3.52
2018-01-30T07:32:49.603Z,3.47
2018-01-30T07:33:49.577Z,3.57
2018-01-30T07:34:49.557Z,3.57
2018-01-30T07:35:49.534Z,3.55
2018-01-30T07:36:49.513Z,3.58
2018-01-30T07:37:49.491Z,3.66
2018-01-30T07:38:49.468Z,3.60
2018-01-30T07:39:49.445Z,3.62
2018-01-30T07:40:49.425Z,3.62
2018-01-30T07:41:49.415Z,3.66
2018-01-30T07:42:49.385Z,3.69
2018-01-30T07:43:49.366Z,3.66
2018-01-30T07:44:49.345Z,3.72
2018-01-30T07:45:49.322Z,3.73
2018-01-30T07:46:49.295Z,3.68
2018-01-30T07:47:49.274Z,3.73
2018-01-30T07:48:49.259Z,3.72
2018-01-30T07:49:49.233Z,3.73
2018-01-30T07:50:49.211Z,3.79
2018-01-30T07:51:49.231Z,3.80
2018-01-30T07:52:49.164Z,3.79
2018-01-30T07:53:49.146Z,3.79
2018-01-30T07:54:49.127Z,3.78
2018-01-30T07:55:49.110Z,3.76
2018-01-30T07:56:49.091Z,3.91
2018-01-30T07:57:49.062Z,3.87
2018-01-30T07:58:49.034Z,3.86
2018-01-30T07:59:49.015Z,3.94
2018-01-30T08:00:48.994Z,3.84
2018-01-30T08:01:48.973Z,3.88
2018-01-30T08:02:48.954Z,3.91
2018-01-30T08:03:48.930Z,3.91
2018-01-30T08:04:48.929Z,3.91
2018-01-30T08:05:48.886Z,3.93
2018-01-30T08:06:48.863Z,3.93
2018-01-30T08:07:48.853Z,4.02
2018-01-30T08:08:48.820Z,3.91
2018-01-30T08:09:48.800Z,3.90
2018-01-30T08:10:48.780Z,3.94
2018-01-30T08:11:48.754Z,3.96
2018-01-30T08:12:48.734Z,4.00
2018-01-30T08:13:48.711Z,3.97
2018-01-30T08:14:48.689Z,3.90
2018-01-30T08:15:48.673Z,3.96
2018-01-30T08:16:48.649Z,3.91
2018-01-30T08:17:48.632Z,3.94
2018-01-30T08:18:48.605Z,3.90
2018-01-30T08:19:48.581Z,3.98
2018-01-30T08:20:48.561Z,3.94
2018-01-30T08:21:48.537Z,4.00
2018-01-30T08:22:48.518Z,4.05
2018-01-30T08:23:48.500Z,4.08
2018-01-30T08:24:48.473Z,4.08
2018-01-30T08:25:48.453Z,4.02
2018-01-30T08:26:48.435Z,4.04
2018-01-30T08:27:48.418Z,4.04
2018-01-30T08:28:48.387Z,3.94
2018-01-30T08:29:48.368Z,4.02
2018-01-30T08:30:48.348Z,3.97
2018-01-30T08:31:48.324Z,3.87
2018-01-30T08:32:48.316Z,3.98
2018-01-30T08:33:48.284Z,3.94
2018-01-30T08:34:48.260Z,3.94
2018-01-30T08:35:48.236Z,3.84
2018-01-30T08:36:48.223Z,3.93
2018-01-30T08:37:48.248Z,3.91
2018-01-30T08:38:48.173Z,3.86
2018-01-30T08:39:48.155Z,3.87
2018-01-30T08:40:48.133Z,3.98
2018-01-30T08:41:48.103Z,3.96
2018-01-30T08:42:48.086Z,3.90
2018-01-30T08:43:48.069Z,3.98
2018-01-30T08:44:48.042Z,4.04
2018-01-30T08:45:48.028Z,4.04
2018-01-30T08:46:48.013Z,4.05
2018-01-30T08:47:47.979Z,3.97
2018-01-30T08:48:47.955Z,4.04
2018-01-30T08:49:47.934Z,4.08
2018-01-30T08:50:47.915Z,4.08
2018-01-30T08:51:47.895Z,4.09
2018-01-30T08:52:47.868Z,4.05
2018-01-30T08:53:47.852Z,4.06
2018-01-30T08:54:47.825Z,4.14
2018-01-30T08:55:47.806Z,4.05
2018-01-30T08:56:47.789Z,4.11
2018-01-30T08:57:47.761Z,4.04
2018-01-30T08:58:47.745Z,4.11
2018-01-30T08:59:47.723Z,4.12
2018-01-30T09:00:47.697Z,4.23
2018-01-30T09:01:47.673Z,4.22
2018-01-30T09:02:47.658Z,4.20
2018-01-30T09:03:47.634Z,4.23
2018-01-30T09:04:47.615Z,4.20
2018-01-30T09:05:47.592Z,4.18
2018-01-30T09:06:47.565Z,4.27
2018-01-30T09:07:47.544Z,4.23
2018-01-30T09:08:47.527Z,4.18
2018-01-30T09:09:47.507Z,4.20
2018-01-30T09:10:47.484Z,4.20
2018-01-30T09:11:47.458Z,4.18
2018-01-30T09:12:47.436Z,4.23
2018-01-30T09:13:47.419Z,4.27
2018-01-30T09:14:47.395Z,4.15
2018-01-30T09:15:47.410Z,4.24
2018-01-30T09:16:47.355Z,4.26
2018-01-30T09:17:47.335Z,4.16
2018-01-30T09:18:47.309Z,4.15
2018-01-30T09:19:47.288Z,4.22
2018-01-30T09:20:47.270Z,4.18
2018-01-30T09:21:47.245Z,4.22
2018-01-30T09:22:47.221Z,4.20
2018-01-30T09:23:47.201Z,4.16
2018-01-30T09:24:47.183Z,4.23
2018-01-30T09:25:47.162Z,4.27
2018-01-30T09:26:47.141Z,4.33
2018-01-30T09:27:47.125Z,4.33
2018-01-30T09:28:47.096Z,4.32
2018-01-30T09:29:47.071Z,4.36
2018-01-30T09:30:47.062Z,4.44
2018-01-30T09:31:47.059Z,4.45
2018-01-30T09:32:47.008Z,4.48
2018-01-30T09:33:46.993Z,4.41
2018-01-30T09:34:46.968Z,4.42
2018-01-30T09:35:46.944Z,4.44
2018-01-30T09:36:46.927Z,4.36
2018-01-30T09:37:46.911Z,4.54
2018-01-30T09:38:46.880Z,4.48
2018-01-30T09:39:46.859Z,4.51
2018-01-30T09:40:46.841Z,4.51
2018-01-30T09:41:46.816Z,4.48
2018-01-30T09:42:46.795Z,4.48
2018-01-30T09:43:46.776Z,4.55
2018-01-30T09:44:46.755Z,4.60
2018-01-30T09:45:46.732Z,4.54
2018-01-30T09:46:46.714Z,4.60
2018-01-30T09:47:46.688Z,4.62
2018-01-30T09:48:46.665Z,4.66
2018-01-30T09:49:46.646Z,4.66
2018-01-30T09:50:46.625Z,4.69
2018-01-30T09:51:46.604Z,4.73
2018-01-30T09:52:46.585Z,4.65
2018-01-30T09:53:46.563Z,4.67
2018-01-30T09:54:46.543Z,4.77
2018-01-30T09:55:46.519Z,4.67
2018-01-30T09:56:46.507Z,4.84
2018-01-30T09:57:46.479Z,4.85
2018-01-30T09:58:46.452Z,4.78
2018-01-30T09:59:46.438Z,4.67
2018-01-30T10:00:46.417Z,4.75
2018-01-30T10:01:46.388Z,4.70
2018-01-30T10:02:46.368Z,4.73
2018-01-30T10:03:46.355Z,4.65
2018-01-30T10:04:46.328Z,4.67
2018-01-30T10:05:46.304Z,4.72
2018-01-30T10:06:46.293Z,4.63
2018-01-30T10:07:46.262Z,4.65
2018-01-30T10:08:46.239Z,4.69
2018-01-30T10:09:46.219Z,4.70
2018-01-30T10:10:46.198Z,4.72
2018-01-30T10:11:46.176Z,4.77
2018-01-30T10:12:46.168Z,4.78
2018-01-30T10:13:46.136Z,4.72
2018-01-30T10:14:46.128Z,4.85
2018-01-30T10:15:46.094Z,4.70
2018-01-30T10:16:46.072Z,4.80
2018-01-30T10:17:46.048Z,4.84
2018-01-30T10:18:46.029Z,4.73
2018-01-30T10:19:46.008Z,4.73
2018-01-30T10:20:45.985Z,4.73
2018-01-30T10:21:45.971Z,4.78
2018-01-30T10:22:45.944Z,4.78
2018-01-30T10:23:45.921Z,4.73
2018-01-30T10:24:45.908Z,4.85
2018-01-30T10:25:45.882Z,4.88
2018-01-30T10:26:45.876Z,4.82
2018-01-30T10:27:45.837Z,4.86
2018-01-30T10:28:45.819Z,4.82
2018-01-30T10:29:45.805Z,4.82
2018-01-30T10:30:45.773Z,4.84
2018-01-30T10:31:45.754Z,4.86
2018-01-30T10:32:45.732Z,4.89
2018-01-30T10:33:45.727Z,4.78
2018-01-30T10:34:45.693Z,4.91
2018-01-30T10:35:45.668Z,4.91
2018-01-30T10:36:45.644Z,5.04
2018-01-30T10:37:45.620Z,5.07
2018-01-30T10:38:45.622Z,5.09
2018-01-30T10:39:45.581Z,5.00
2018-01-30T10:40:45.558Z,5.03
2018-01-30T10:41:45.539Z,5.04
2018-01-30T10:42:45.527Z,4.92
2018-01-30T10:43:45.494Z,5.03
2018-01-30T10:44:45.473Z,5.02
2018-01-30T10:45:45.454Z,5.04
2018-01-30T10:46:45.437Z,5.06
2018-01-30T10:47:45.416Z,5.07
2018-01-30T10:48:45.388Z,5.06
2018-01-30T10:49:45.367Z,5.13
2018-01-30T10:50:45.344Z,5.10
2018-01-30T10:51:45.325Z,5.20
2018-01-30T10:52:45.303Z,5.30
2018-01-30T10:53:45.295Z,5.36
2018-01-30T10:54:45.265Z,5.43
2018-01-30T10:55:45.242Z,5.53
2018-01-30T10:56:45.216Z,5.51
2018-01-30T10:57:45.202Z,5.57
2018-01-30T10:58:45.183Z,5.53
2018-01-30T10:59:45.156Z,5.65
2018-01-30T11:00:45.135Z,5.61
2018-01-30T11:01:45.114Z,5.61
2018-01-30T11:02:45.089Z,5.71
2018-01-30T11:03:45.069Z,5.78
2018-01-30T11:04:45.044Z,5.76
2018-01-30T11:05:45.025Z,5.78
2018-01-30T11:06:45.010Z,5.93
2018-01-30T11:07:44.982Z,5.91
2018-01-30T11:08:44.963Z,5.91
2018-01-30T11:09:44.942Z,5.99
2018-01-30T11:10:44.919Z,6.01
2018-01-30T11:11:44.898Z,6.09
2018-01-30T11:12:44.890Z,6.12
2018-01-30T11:13:44.865Z,6.14
2018-01-30T11:14:44.834Z,6.21
2018-01-30T11:15:44.820Z,6.15
2018-01-30T11:16:44.796Z,6.22
2018-01-30T11:17:44.771Z,6.25
2018-01-30T11:18:44.758Z,6.31
2018-01-30T11:19:44.736Z,6.38
2018-01-30T11:20:44.709Z,6.38
2018-01-30T11:21:44.698Z,6.46
2018-01-30T11:22:44.672Z,6.46
2018-01-30T11:23:44.649Z,6.58
2018-01-30T11:24:44.629Z,6.58
2018-01-30T11:25:44.619Z,6.58
2018-01-30T11:26:44.590Z,6.62
2018-01-30T11:27:44.564Z,6.69
2018-01-30T11:28:44.543Z,6.59
2018-01-30T11:29:44.519Z,6.58
2018-01-30T11:30:44.506Z,6.58
2018-01-30T11:31:44.485Z,6.62
2018-01-30T11:32:44.465Z,6.64
2018-01-30T11:33:44.440Z,6.67
2018-01-30T11:34:44.422Z,6.62
2018-01-30T11:35:44.454Z,6.62
2018-01-30T11:36:44.381Z,6.64
2018-01-30T11:37:44.356Z,6.69
2018-01-30T11:38:44.336Z,6.66
2018-01-30T11:39:44.321Z,6.71
2018-01-30T11:40:44.295Z,6.59
2018-01-30T11:41:44.281Z,6.64
2018-01-30T11:42:44.254Z,6.46
2018-01-30T11:43:44.235Z,6.49
2018-01-30T11:44:44.214Z,6.44
2018-01-30T11:45:44.202Z,6.46
2018-01-30T11:46:44.176Z,6.40
2018-01-30T11:47:44.154Z,6.41
2018-01-30T11:48:44.130Z,6.44
2018-01-30T11:49:44.125Z,6.36
2018-01-30T11:50:44.090Z,6.28
2018-01-30T11:51:44.076Z,6.36
2018-01-30T11:52:44.051Z,6.38
2018-01-30T11:53:44.027Z,6.33
2018-01-30T11:54:44.011Z,6.40
2018-01-30T11:55:43.989Z,6.30
2018-01-30T11:56:43.965Z,6.31
2018-01-30T11:57:43.944Z,6.21
2018-01-30T11:58:43.924Z,6.15
2018-01-30T11:59:43.904Z,6.04
2018-01-30T12:00:43.885Z,6.14
2018-01-30T12:01:43.869Z,5.99
2018-01-30T12:02:43.850Z,6.01
2018-01-30T12:03:43.834Z,6.03
2018-01-30T12:04:43.802Z,6.06
2018-01-30T12:05:43.782Z,6.08
2018-01-30T12:06:43.760Z,6.04
2018-01-30T12:07:43.742Z,6.03
2018-01-30T12:08:43.717Z,6.00
2018-01-30T12:09:43.698Z,6.08
2018-01-30T12:10:43.679Z,6.01
2018-01-30T12:11:43.656Z,6.04
2018-01-30T12:12:43.638Z,6.12
2018-01-30T12:13:43.618Z,6.04
2018-01-30T12:14:43.594Z,6.25
2018-01-30T12:15:43.584Z,6.17
2018-01-30T12:16:43.558Z,6.17
2018-01-30T12:17:43.536Z,6.30
2018-01-30T12:18:43.511Z,6.38
2018-01-30T12:19:43.496Z,6.30
2018-01-30T12:20:43.472Z,6.31
2018-01-30T12:21:43.451Z,6.34
2018-01-30T12:22:43.430Z,6.33
2018-01-30T12:23:43.410Z,6.33
2018-01-30T12:24:43.394Z,6.34
2018-01-30T12:25:43.368Z,6.33
2018-01-30T12:26:43.346Z,6.37
2018-01-30T12:27:43.327Z,6.41
2018-01-30T12:28:43.307Z,6.36
2018-01-30T12:29:43.285Z,6.33
2018-01-30T12:30:43.264Z,6.34
2018-01-30T12:31:43.242Z,6.36
2018-01-30T12:32:43.220Z,6.33
2018-01-30T12:33:43.204Z,6.37
2018-01-30T12:34:43.181Z,6.27
2018-01-30T12:35:43.161Z,6.33
2018-01-30T12:36:43.140Z,6.36
2018-01-30T12:37:43.119Z,6.38
2018-01-30T12:38:43.100Z,6.34
2018-01-30T12:39:43.090Z,6.31
2018-01-30T12:40:43.058Z,6.31
2018-01-30T12:41:43.083Z,6.30
2018-01-30T12:42:43.015Z,6.33
2018-01-30T12:43:42.996Z,6.28
2018-01-30T12:44:42.973Z,6.31
2018-01-30T12:45:42.954Z,6.28
2018-01-30T12:46:42.931Z,6.28
2018-01-30T12:47:42.915Z,6.22
2018-01-30T12:48:42.942Z,6.31
2018-01-30T12:49:42.873Z,6.14
2018-01-30T12:50:42.858Z,6.17
2018-01-30T12:51:42.830Z,6.22
2018-01-30T12:52:42.806Z,6.28
2018-01-30T12:53:42.794Z,6.25
2018-01-30T12:54:42.766Z,6.27
2018-01-30T12:55:42.746Z,6.34
2018-01-30T12:56:42.725Z,6.27
2018-01-30T12:57:42.704Z,6.40
2018-01-30T12:58:42.689Z,6.40
2018-01-30T12:59:42.672Z,6.38
2018-01-30T13:00:42.646Z,6.43
2018-01-30T13:01:42.625Z,6.51
2018-01-30T13:02:42.601Z,6.51
2018-01-30T13:03:42.585Z,6.54
2018-01-30T13:04:42.561Z,6.55
2018-01-30T13:05:42.541Z,6.56
2018-01-30T13:06:42.521Z,6.55
2018-01-30T13:07:42.526Z,6.46
2018-01-30T13:08:42.475Z,6.48
2018-01-30T13:09:42.456Z,6.56
2018-01-30T13:10:42.435Z,6.54
2018-01-30T13:11:42.414Z,6.66
2018-01-30T13:12:42.407Z,6.66
2018-01-30T13:13:42.384Z,6.61
2018-01-30T13:14:42.356Z,6.58
2018-01-30T13:15:42.343Z,6.62
2018-01-30T13:16:42.315Z,6.67
2018-01-30T13:17:42.294Z,6.73
2018-01-30T13:18:42.268Z,6.77